メインページ
METAR-TAF:

METAR-TAF

空港 :

ドバイ, アラブ首長国連邦

ドバイ国際空港

緯度: 25-15-10N, 経度: 055-21-52E, 海抜: 8m

現時点の気象観測

当レポートは1時間1分前の20:00(UTC)に作成
の風 5kt、北東から東/南東の間で変化する
気温 25°C
湿度 74%
気圧 1014 hPa
視程: 8000m

METAR: OMDB 292000Z 09005KT 050V120 8000 NSC 25/20 Q1014 NOSIG

時間: 01:01 (21:01 UTC)

予報

当レポートは4時間7分前の16:54(UTC)に作成
予報は29日の 18時(UTC)から 31日の 00時(UTC)まで有効
変向風 2kt
視程10km以上
1,500メートル以下は雲なし、積乱雲なし
確率 30%
30日の 01時(UTC)から 30日の 05時(UTC)まで
視程: 3000m
30日の 07時(UTC)から 30日の 09時(UTC)まで徐々に
北/北西の風 10kt
30日の 18時(UTC)から 30日の 20時(UTC)まで徐々に
南東の風 5kt

TAF: OMDB 291654Z 2918/3100 VRB02KT CAVOK PROB30 3001/3005 3000 BR BECMG 3007/3009 34010KT BECMG 3018/3020 14005KT

4,000以上の空港の気象観測と天気予報(METAR報とTAF報)

利用可能な観測所は地図上に黄色い丸と赤い丸で示す。

丸の上にカーソルを重ねると観測所名を参照できる。

次にクリックすると気象観測と天気予報を参照できる。

マップの切り替え:黒色「×」印の緑ボタンをクリックして拡大、「-」印の緑ボタンをクリックして縮小、緑色の三角印をクリックして隣りの地図に切り替え


METAR-TAF: